sensor_id;sensor_type;location;lat;lon;timestamp;temperature;humidity
27633;DHT22;15046;50.930;13.334;2023-07-20T00:01:26;16.20;99.90
27633;DHT22;15046;50.930;13.334;2023-07-20T00:03:52;16.20;99.90
27633;DHT22;15046;50.930;13.334;2023-07-20T00:06:24;16.30;99.90
27633;DHT22;15046;50.930;13.334;2023-07-20T00:08:55;16.30;99.90
27633;DHT22;15046;50.930;13.334;2023-07-20T00:11:21;16.30;99.90
27633;DHT22;15046;50.930;13.334;2023-07-20T00:13:47;16.30;99.90
27633;DHT22;15046;50.930;13.334;2023-07-20T00:16:16;16.20;99.90
27633;DHT22;15046;50.930;13.334;2023-07-20T00:18:42;16.20;99.90
27633;DHT22;15046;50.930;13.334;2023-07-20T00:21:07;16.10;99.90
27633;DHT22;15046;50.930;13.334;2023-07-20T00:23:33;16.00;99.90
27633;DHT22;15046;50.930;13.334;2023-07-20T00:25:59;16.10;99.90
27633;DHT22;15046;50.930;13.334;2023-07-20T00:28:24;16.00;99.90
27633;DHT22;15046;50.930;13.334;2023-07-20T00:30:50;16.00;99.90
27633;DHT22;15046;50.930;13.334;2023-07-20T00:33:17;16.00;99.90
27633;DHT22;15046;50.930;13.334;2023-07-20T00:35:43;16.00;99.90
27633;DHT22;15046;50.930;13.334;2023-07-20T00:38:09;16.00;99.90
27633;DHT22;15046;50.930;13.334;2023-07-20T00:40:39;16.00;99.90
27633;DHT22;15046;50.930;13.334;2023-07-20T00:43:06;16.00;99.90
27633;DHT22;15046;50.930;13.334;2023-07-20T00:45:33;16.00;99.90
27633;DHT22;15046;50.930;13.334;2023-07-20T00:47:59;16.00;99.90
27633;DHT22;15046;50.930;13.334;2023-07-20T00:50:26;16.00;99.90
27633;DHT22;15046;50.930;13.334;2023-07-20T00:52:54;16.00;99.90
27633;DHT22;15046;50.930;13.334;2023-07-20T00:55:20;16.00;99.90
27633;DHT22;15046;50.930;13.334;2023-07-20T00:57:46;16.10;99.90
27633;DHT22;15046;50.930;13.334;2023-07-20T01:00:13;16.00;99.90
27633;DHT22;15046;50.930;13.334;2023-07-20T01:02:39;16.00;99.90
27633;DHT22;15046;50.930;13.334;2023-07-20T01:05:05;16.00;99.90
27633;DHT22;15046;50.930;13.334;2023-07-20T01:10:31;15.90;99.90
27633;DHT22;15046;50.930;13.334;2023-07-20T01:13:00;15.90;99.90
27633;DHT22;15046;50.930;13.334;2023-07-20T01:15:27;15.90;99.90
27633;DHT22;15046;50.930;13.334;2023-07-20T01:17:53;15.80;99.90
27633;DHT22;15046;50.930;13.334;2023-07-20T01:20:20;15.80;99.90
27633;DHT22;15046;50.930;13.334;2023-07-20T01:23:07;15.80;99.90
27633;DHT22;15046;50.930;13.334;2023-07-20T01:30:59;15.60;99.90
27633;DHT22;15046;50.930;13.334;2023-07-20T01:33:30;15.60;99.90
27633;DHT22;15046;50.930;13.334;2023-07-20T01:35:58;15.50;99.90
27633;DHT22;15046;50.930;13.334;2023-07-20T01:38:25;15.50;99.90
27633;DHT22;15046;50.930;13.334;2023-07-20T01:40:51;15.40;99.90
27633;DHT22;15046;50.930;13.334;2023-07-20T01:43:17;15.40;99.90
27633;DHT22;15046;50.930;13.334;2023-07-20T01:45:44;15.30;99.90
27633;DHT22;15046;50.930;13.334;2023-07-20T01:48:09;15.30;99.90
27633;DHT22;15046;50.930;13.334;2023-07-20T01:50:35;15.30;99.90
27633;DHT22;15046;50.930;13.334;2023-07-20T01:53:01;15.30;99.90
27633;DHT22;15046;50.930;13.334;2023-07-20T01:55:27;15.30;99.90
27633;DHT22;15046;50.930;13.334;2023-07-20T01:57:54;15.20;99.90
27633;DHT22;15046;50.930;13.334;2023-07-20T02:00:20;15.20;99.90
27633;DHT22;15046;50.930;13.334;2023-07-20T02:02:49;15.20;99.90
27633;DHT22;15046;50.930;13.334;2023-07-20T02:05:16;15.20;99.90
27633;DHT22;15046;50.930;13.334;2023-07-20T02:07:42;15.30;99.90
27633;DHT22;15046;50.930;13.334;2023-07-20T02:10:08;15.20;99.90
27633;DHT22;15046;50.930;13.334;2023-07-20T02:12:33;15.20;99.90
27633;DHT22;15046;50.930;13.334;2023-07-20T02:14:59;15.20;99.90
27633;DHT22;15046;50.930;13.334;2023-07-20T02:17:25;15.30;99.90
27633;DHT22;15046;50.930;13.334;2023-07-20T02:19:54;15.20;99.90
27633;DHT22;15046;50.930;13.334;2023-07-20T02:22:21;15.20;99.90
27633;DHT22;15046;50.930;13.334;2023-07-20T02:24:47;15.20;99.90
27633;DHT22;15046;50.930;13.334;2023-07-20T02:27:13;15.20;99.90
27633;DHT22;15046;50.930;13.334;2023-07-20T02:29:41;15.10;99.90
27633;DHT22;15046;50.930;13.334;2023-07-20T02:32:08;15.10;99.90
27633;DHT22;15046;50.930;13.334;2023-07-20T02:34:34;15.10;99.90
27633;DHT22;15046;50.930;13.334;2023-07-20T02:37:00;15.10;99.90
27633;DHT22;15046;50.930;13.334;2023-07-20T02:39:30;15.00;99.90
27633;DHT22;15046;50.930;13.334;2023-07-20T02:41:55;15.00;99.90
27633;DHT22;15046;50.930;13.334;2023-07-20T02:44:21;14.90;99.90
27633;DHT22;15046;50.930;13.334;2023-07-20T02:46:47;14.90;99.90
27633;DHT22;15046;50.930;13.334;2023-07-20T02:49:15;15.00;99.90
27633;DHT22;15046;50.930;13.334;2023-07-20T02:51:41;15.00;99.90
27633;DHT22;15046;50.930;13.334;2023-07-20T02:54:07;15.00;99.90
27633;DHT22;15046;50.930;13.334;2023-07-20T02:56:33;15.00;99.90
27633;DHT22;15046;50.930;13.334;2023-07-20T02:59:01;15.10;99.90
27633;DHT22;15046;50.930;13.334;2023-07-20T03:01:27;15.10;99.90
27633;DHT22;15046;50.930;13.334;2023-07-20T03:03:57;15.10;99.90
27633;DHT22;15046;50.930;13.334;2023-07-20T03:06:23;15.10;99.90
27633;DHT22;15046;50.930;13.334;2023-07-20T03:08:49;15.20;99.90
27633;DHT22;15046;50.930;13.334;2023-07-20T03:11:18;15.20;99.90
27633;DHT22;15046;50.930;13.334;2023-07-20T03:13:44;15.30;99.90
27633;DHT22;15046;50.930;13.334;2023-07-20T03:16:12;15.30;99.90
27633;DHT22;15046;50.930;13.334;2023-07-20T03:18:41;15.30;99.90
27633;DHT22;15046;50.930;13.334;2023-07-20T03:21:08;15.30;99.90
27633;DHT22;15046;50.930;13.334;2023-07-20T03:23:34;15.30;99.90
27633;DHT22;15046;50.930;13.334;2023-07-20T03:26:00;15.40;99.90
27633;DHT22;15046;50.930;13.334;2023-07-20T03:28:26;15.40;99.90
27633;DHT22;15046;50.930;13.334;2023-07-20T03:30:58;15.40;99.90
27633;DHT22;15046;50.930;13.334;2023-07-20T03:33:28;15.40;99.90
27633;DHT22;15046;50.930;13.334;2023-07-20T03:35:55;15.40;99.90
27633;DHT22;15046;50.930;13.334;2023-07-20T03:38:22;15.40;99.90
27633;DHT22;15046;50.930;13.334;2023-07-20T03:40:51;15.50;99.90
27633;DHT22;15046;50.930;13.334;2023-07-20T03:43:17;15.50;99.90
27633;DHT22;15046;50.930;13.334;2023-07-20T03:45:43;15.60;99.90
27633;DHT22;15046;50.930;13.334;2023-07-20T03:48:11;15.60;99.90
27633;DHT22;15046;50.930;13.334;2023-07-20T03:50:37;15.70;99.90
27633;DHT22;15046;50.930;13.334;2023-07-20T03:53:03;15.70;99.90
27633;DHT22;15046;50.930;13.334;2023-07-20T03:55:29;15.80;99.90
27633;DHT22;15046;50.930;13.334;2023-07-20T03:57:54;15.80;99.90
27633;DHT22;15046;50.930;13.334;2023-07-20T04:00:20;15.80;99.90
27633;DHT22;15046;50.930;13.334;2023-07-20T04:02:46;15.80;99.90
27633;DHT22;15046;50.930;13.334;2023-07-20T04:05:12;15.80;99.90
27633;DHT22;15046;50.930;13.334;2023-07-20T04:07:38;15.80;99.90
27633;DHT22;15046;50.930;13.334;2023-07-20T04:10:04;15.80;99.90
27633;DHT22;15046;50.930;13.334;2023-07-20T04:12:29;15.70;99.90
27633;DHT22;15046;50.930;13.334;2023-07-20T04:14:55;15.60;99.90
27633;DHT22;15046;50.930;13.334;2023-07-20T04:17:21;15.60;99.90
27633;DHT22;15046;50.930;13.334;2023-07-20T04:19:46;15.60;99.90
27633;DHT22;15046;50.930;13.334;2023-07-20T04:22:13;15.60;99.90
27633;DHT22;15046;50.930;13.334;2023-07-20T04:24:42;15.70;99.90
27633;DHT22;15046;50.930;13.334;2023-07-20T04:27:08;15.70;99.90
27633;DHT22;15046;50.930;13.334;2023-07-20T04:29:34;15.70;99.90
27633;DHT22;15046;50.930;13.334;2023-07-20T04:32:00;15.70;99.90
27633;DHT22;15046;50.930;13.334;2023-07-20T04:34:25;15.70;99.90
27633;DHT22;15046;50.930;13.334;2023-07-20T04:36:51;15.80;99.90
27633;DHT22;15046;50.930;13.334;2023-07-20T04:39:17;15.80;99.90
27633;DHT22;15046;50.930;13.334;2023-07-20T04:41:43;15.80;99.90
27633;DHT22;15046;50.930;13.334;2023-07-20T04:44:08;15.90;99.90
27633;DHT22;15046;50.930;13.334;2023-07-20T04:46:34;15.90;99.90
27633;DHT22;15046;50.930;13.334;2023-07-20T04:49:00;15.90;99.90
27633;DHT22;15046;50.930;13.334;2023-07-20T04:51:27;15.90;99.90
27633;DHT22;15046;50.930;13.334;2023-07-20T04:53:52;16.00;99.90
27633;DHT22;15046;50.930;13.334;2023-07-20T04:56:18;16.00;99.90
27633;DHT22;15046;50.930;13.334;2023-07-20T04:58:44;16.00;99.90
27633;DHT22;15046;50.930;13.334;2023-07-20T05:01:10;16.00;99.90
27633;DHT22;15046;50.930;13.334;2023-07-20T05:03:36;16.10;99.90
27633;DHT22;15046;50.930;13.334;2023-07-20T05:06:02;16.10;99.90
27633;DHT22;15046;50.930;13.334;2023-07-20T05:08:28;16.10;99.90
27633;DHT22;15046;50.930;13.334;2023-07-20T05:10:53;16.20;99.90
27633;DHT22;15046;50.930;13.334;2023-07-20T05:13:19;16.20;99.90
27633;DHT22;15046;50.930;13.334;2023-07-20T05:15:45;16.20;99.90
27633;DHT22;15046;50.930;13.334;2023-07-20T05:18:10;16.30;99.90
27633;DHT22;15046;50.930;13.334;2023-07-20T05:20:36;16.30;99.90
27633;DHT22;15046;50.930;13.334;2023-07-20T05:23:03;16.30;99.90
27633;DHT22;15046;50.930;13.334;2023-07-20T05:25:28;16.40;99.90
27633;DHT22;15046;50.930;13.334;2023-07-20T05:27:54;16.50;99.90
27633;DHT22;15046;50.930;13.334;2023-07-20T05:30:21;16.50;99.90
27633;DHT22;15046;50.930;13.334;2023-07-20T05:32:46;16.60;99.90
27633;DHT22;15046;50.930;13.334;2023-07-20T05:35:17;16.60;99.90
27633;DHT22;15046;50.930;13.334;2023-07-20T05:37:44;16.70;99.90
27633;DHT22;15046;50.930;13.334;2023-07-20T05:40:10;16.90;99.90
27633;DHT22;15046;50.930;13.334;2023-07-20T05:42:38;16.90;99.90
27633;DHT22;15046;50.930;13.334;2023-07-20T05:45:04;16.90;99.90
27633;DHT22;15046;50.930;13.334;2023-07-20T05:47:30;16.70;99.90
27633;DHT22;15046;50.930;13.334;2023-07-20T05:49:56;16.60;99.90
27633;DHT22;15046;50.930;13.334;2023-07-20T05:52:22;16.50;99.90
27633;DHT22;15046;50.930;13.334;2023-07-20T05:54:47;16.50;99.90
27633;DHT22;15046;50.930;13.334;2023-07-20T05:57:13;16.40;99.90
27633;DHT22;15046;50.930;13.334;2023-07-20T05:59:39;16.30;99.90
27633;DHT22;15046;50.930;13.334;2023-07-20T06:02:06;16.20;99.90
27633;DHT22;15046;50.930;13.334;2023-07-20T06:04:33;16.20;99.90
27633;DHT22;15046;50.930;13.334;2023-07-20T06:06:59;16.00;99.90
27633;DHT22;15046;50.930;13.334;2023-07-20T06:09:25;15.80;99.90
27633;DHT22;15046;50.930;13.334;2023-07-20T06:11:51;15.50;99.90
27633;DHT22;15046;50.930;13.334;2023-07-20T06:14:17;15.40;99.90
27633;DHT22;15046;50.930;13.334;2023-07-20T06:16:44;15.20;99.90
27633;DHT22;15046;50.930;13.334;2023-07-20T06:19:10;15.10;99.90
27633;DHT22;15046;50.930;13.334;2023-07-20T06:21:39;15.00;99.90
27633;DHT22;15046;50.930;13.334;2023-07-20T06:24:05;15.00;99.90
27633;DHT22;15046;50.930;13.334;2023-07-20T06:26:31;15.00;99.90
27633;DHT22;15046;50.930;13.334;2023-07-20T06:28:57;15.00;99.90
27633;DHT22;15046;50.930;13.334;2023-07-20T06:31:23;15.10;99.90
27633;DHT22;15046;50.930;13.334;2023-07-20T06:33:49;15.10;99.90
27633;DHT22;15046;50.930;13.334;2023-07-20T06:36:18;15.20;99.90
27633;DHT22;15046;50.930;13.334;2023-07-20T06:38:44;15.20;99.90
27633;DHT22;15046;50.930;13.334;2023-07-20T06:41:09;15.30;99.90
27633;DHT22;15046;50.930;13.334;2023-07-20T06:43:35;15.40;99.90
27633;DHT22;15046;50.930;13.334;2023-07-20T06:46:01;15.50;99.90
27633;DHT22;15046;50.930;13.334;2023-07-20T06:48:27;15.60;99.90
27633;DHT22;15046;50.930;13.334;2023-07-20T06:50:52;15.60;99.90
27633;DHT22;15046;50.930;13.334;2023-07-20T06:53:19;15.70;99.90
27633;DHT22;15046;50.930;13.334;2023-07-20T06:55:44;15.70;99.90
27633;DHT22;15046;50.930;13.334;2023-07-20T06:58:11;15.70;99.90
27633;DHT22;15046;50.930;13.334;2023-07-20T07:00:37;15.70;99.90
27633;DHT22;15046;50.930;13.334;2023-07-20T07:03:02;15.70;99.90
27633;DHT22;15046;50.930;13.334;2023-07-20T07:05:28;15.80;99.90
27633;DHT22;15046;50.930;13.334;2023-07-20T07:07:54;15.80;99.90
27633;DHT22;15046;50.930;13.334;2023-07-20T07:10:20;15.80;99.90
27633;DHT22;15046;50.930;13.334;2023-07-20T07:12:45;15.80;99.90
27633;DHT22;15046;50.930;13.334;2023-07-20T07:15:11;15.70;99.90
27633;DHT22;15046;50.930;13.334;2023-07-20T07:17:37;15.70;99.90
27633;DHT22;15046;50.930;13.334;2023-07-20T07:20:04;15.70;99.90
27633;DHT22;15046;50.930;13.334;2023-07-20T07:22:30;15.60;99.90
27633;DHT22;15046;50.930;13.334;2023-07-20T07:24:56;15.50;99.90
27633;DHT22;15046;50.930;13.334;2023-07-20T07:27:22;15.50;99.90
27633;DHT22;15046;50.930;13.334;2023-07-20T07:29:48;15.50;99.90
27633;DHT22;15046;50.930;13.334;2023-07-20T07:32:15;15.50;99.90
27633;DHT22;15046;50.930;13.334;2023-07-20T07:34:41;15.70;99.90
27633;DHT22;15046;50.930;13.334;2023-07-20T07:37:07;15.80;99.90
27633;DHT22;15046;50.930;13.334;2023-07-20T07:39:33;15.90;99.90
27633;DHT22;15046;50.930;13.334;2023-07-20T07:41:58;15.90;99.90
27633;DHT22;15046;50.930;13.334;2023-07-20T07:44:24;16.00;99.90
27633;DHT22;15046;50.930;13.334;2023-07-20T07:46:50;16.10;99.90
27633;DHT22;15046;50.930;13.334;2023-07-20T07:49:16;16.10;99.90
27633;DHT22;15046;50.930;13.334;2023-07-20T07:51:44;16.20;99.90
27633;DHT22;15046;50.930;13.334;2023-07-20T07:54:10;16.20;99.90
27633;DHT22;15046;50.930;13.334;2023-07-20T07:56:35;16.30;99.90
27633;DHT22;15046;50.930;13.334;2023-07-20T07:59:01;16.40;99.90
27633;DHT22;15046;50.930;13.334;2023-07-20T08:01:28;16.60;99.90
27633;DHT22;15046;50.930;13.334;2023-07-20T08:03:54;16.80;99.90
27633;DHT22;15046;50.930;13.334;2023-07-20T08:06:20;17.10;99.90
27633;DHT22;15046;50.930;13.334;2023-07-20T08:08:45;17.30;99.90
27633;DHT22;15046;50.930;13.334;2023-07-20T08:11:11;17.50;99.90
27633;DHT22;15046;50.930;13.334;2023-07-20T08:13:37;17.50;99.90
27633;DHT22;15046;50.930;13.334;2023-07-20T08:16:03;17.30;99.90
27633;DHT22;15046;50.930;13.334;2023-07-20T08:18:29;17.30;99.90
27633;DHT22;15046;50.930;13.334;2023-07-20T08:20:55;17.30;99.90
27633;DHT22;15046;50.930;13.334;2023-07-20T08:23:20;17.40;99.90
27633;DHT22;15046;50.930;13.334;2023-07-20T08:25:46;17.40;99.90
27633;DHT22;15046;50.930;13.334;2023-07-20T08:28:14;17.50;99.90
27633;DHT22;15046;50.930;13.334;2023-07-20T08:30:44;17.70;99.90
27633;DHT22;15046;50.930;13.334;2023-07-20T08:33:12;18.00;99.90
27633;DHT22;15046;50.930;13.334;2023-07-20T08:35:38;18.30;99.90
27633;DHT22;15046;50.930;13.334;2023-07-20T08:38:04;18.60;99.90
27633;DHT22;15046;50.930;13.334;2023-07-20T08:40:31;18.70;99.90
27633;DHT22;15046;50.930;13.334;2023-07-20T08:42:59;18.70;99.90
27633;DHT22;15046;50.930;13.334;2023-07-20T08:45:27;18.60;99.90
27633;DHT22;15046;50.930;13.334;2023-07-20T08:47:58;18.50;99.90
27633;DHT22;15046;50.930;13.334;2023-07-20T08:50:26;18.40;99.90
27633;DHT22;15046;50.930;13.334;2023-07-20T08:52:52;18.50;99.90
27633;DHT22;15046;50.930;13.334;2023-07-20T08:55:20;18.60;99.90
27633;DHT22;15046;50.930;13.334;2023-07-20T08:57:50;18.60;99.90
27633;DHT22;15046;50.930;13.334;2023-07-20T09:00:17;18.80;99.90
27633;DHT22;15046;50.930;13.334;2023-07-20T09:02:46;18.80;99.90
27633;DHT22;15046;50.930;13.334;2023-07-20T09:05:12;18.90;99.90
27633;DHT22;15046;50.930;13.334;2023-07-20T09:07:41;18.90;99.90
27633;DHT22;15046;50.930;13.334;2023-07-20T09:10:08;18.90;99.90
27633;DHT22;15046;50.930;13.334;2023-07-20T09:12:42;18.90;99.90
27633;DHT22;15046;50.930;13.334;2023-07-20T09:15:10;18.80;99.90
27633;DHT22;15046;50.930;13.334;2023-07-20T09:17:36;18.90;99.90
27633;DHT22;15046;50.930;13.334;2023-07-20T09:20:07;19.10;99.90
27633;DHT22;15046;50.930;13.334;2023-07-20T09:22:39;19.40;99.90
27633;DHT22;15046;50.930;13.334;2023-07-20T09:25:17;19.70;99.90
27633;DHT22;15046;50.930;13.334;2023-07-20T09:27:47;20.00;99.90
27633;DHT22;15046;50.930;13.334;2023-07-20T09:30:14;20.00;99.90
27633;DHT22;15046;50.930;13.334;2023-07-20T09:32:45;19.90;99.90
27633;DHT22;15046;50.930;13.334;2023-07-20T09:35:21;19.90;99.90
27633;DHT22;15046;50.930;13.334;2023-07-20T09:37:58;19.90;99.90
27633;DHT22;15046;50.930;13.334;2023-07-20T09:40:25;19.90;99.90
27633;DHT22;15046;50.930;13.334;2023-07-20T09:42:53;19.90;99.90
27633;DHT22;15046;50.930;13.334;2023-07-20T09:45:44;20.00;99.90
27633;DHT22;15046;50.930;13.334;2023-07-20T09:48:10;20.10;99.90
27633;DHT22;15046;50.930;13.334;2023-07-20T09:50:49;20.10;99.90
27633;DHT22;15046;50.930;13.334;2023-07-20T09:53:17;20.10;99.90
27633;DHT22;15046;50.930;13.334;2023-07-20T09:55:47;20.30;99.90
27633;DHT22;15046;50.930;13.334;2023-07-20T09:58:13;20.30;99.90
27633;DHT22;15046;50.930;13.334;2023-07-20T10:00:41;20.30;99.90
27633;DHT22;15046;50.930;13.334;2023-07-20T10:03:11;20.30;99.90
27633;DHT22;15046;50.930;13.334;2023-07-20T10:05:43;20.40;99.90
27633;DHT22;15046;50.930;13.334;2023-07-20T10:08:11;20.10;99.90
27633;DHT22;15046;50.930;13.334;2023-07-20T10:10:40;19.90;99.90
27633;DHT22;15046;50.930;13.334;2023-07-20T10:13:13;19.80;99.90
27633;DHT22;15046;50.930;13.334;2023-07-20T10:16:05;19.60;99.90
27633;DHT22;15046;50.930;13.334;2023-07-20T10:18:50;19.50;99.90
27633;DHT22;15046;50.930;13.334;2023-07-20T10:21:17;19.70;99.90
27633;DHT22;15046;50.930;13.334;2023-07-20T10:23:45;20.30;99.90
27633;DHT22;15046;50.930;13.334;2023-07-20T10:26:12;21.20;99.90
27633;DHT22;15046;50.930;13.334;2023-07-20T10:28:39;21.10;99.90
27633;DHT22;15046;50.930;13.334;2023-07-20T10:31:11;20.80;99.90
27633;DHT22;15046;50.930;13.334;2023-07-20T10:33:38;20.50;99.90
27633;DHT22;15046;50.930;13.334;2023-07-20T10:36:05;20.30;99.90
27633;DHT22;15046;50.930;13.334;2023-07-20T10:38:52;20.30;99.90
27633;DHT22;15046;50.930;13.334;2023-07-20T10:41:27;20.30;99.90
27633;DHT22;15046;50.930;13.334;2023-07-20T10:44:01;20.20;99.90
27633;DHT22;15046;50.930;13.334;2023-07-20T10:47:03;20.20;99.90
27633;DHT22;15046;50.930;13.334;2023-07-20T10:49:34;20.50;99.90
27633;DHT22;15046;50.930;13.334;2023-07-20T10:52:04;21.20;99.90
27633;DHT22;15046;50.930;13.334;2023-07-20T10:56:57;23.80;99.90
27633;DHT22;15046;50.930;13.334;2023-07-20T11:01:56;24.40;99.90
27633;DHT22;15046;50.930;13.334;2023-07-20T11:04:42;24.60;99.50
27633;DHT22;15046;50.930;13.334;2023-07-20T11:07:08;25.40;99.10
27633;DHT22;15046;50.930;13.334;2023-07-20T11:09:35;26.60;96.20
27633;DHT22;15046;50.930;13.334;2023-07-20T11:12:15;27.50;92.80
27633;DHT22;15046;50.930;13.334;2023-07-20T11:14:42;28.20;90.10
27633;DHT22;15046;50.930;13.334;2023-07-20T11:17:12;28.50;87.00
27633;DHT22;15046;50.930;13.334;2023-07-20T11:19:39;28.80;82.40
27633;DHT22;15046;50.930;13.334;2023-07-20T11:22:06;29.50;79.90
27633;DHT22;15046;50.930;13.334;2023-07-20T11:24:38;30.10;75.60
27633;DHT22;15046;50.930;13.334;2023-07-20T11:27:05;29.80;72.40
27633;DHT22;15046;50.930;13.334;2023-07-20T11:29:31;28.80;71.90
27633;DHT22;15046;50.930;13.334;2023-07-20T11:31:57;27.80;72.80
27633;DHT22;15046;50.930;13.334;2023-07-20T11:34:24;26.90;74.50
27633;DHT22;15046;50.930;13.334;2023-07-20T11:36:51;26.60;75.00
27633;DHT22;15046;50.930;13.334;2023-07-20T11:39:18;26.00;75.70
27633;DHT22;15046;50.930;13.334;2023-07-20T11:41:51;25.50;77.30
27633;DHT22;15046;50.930;13.334;2023-07-20T11:44:24;25.00;78.00
27633;DHT22;15046;50.930;13.334;2023-07-20T11:47:02;24.40;78.40
27633;DHT22;15046;50.930;13.334;2023-07-20T11:49:29;23.70;80.70
27633;DHT22;15046;50.930;13.334;2023-07-20T11:51:56;23.50;82.00
27633;DHT22;15046;50.930;13.334;2023-07-20T11:54:23;23.30;83.10
27633;DHT22;15046;50.930;13.334;2023-07-20T11:56:54;23.30;83.00
27633;DHT22;15046;50.930;13.334;2023-07-20T11:59:21;23.30;83.70
27633;DHT22;15046;50.930;13.334;2023-07-20T12:01:47;23.30;83.00
27633;DHT22;15046;50.930;13.334;2023-07-20T12:04:13;23.20;83.20
27633;DHT22;15046;50.930;13.334;2023-07-20T12:06:38;23.00;84.10
27633;DHT22;15046;50.930;13.334;2023-07-20T12:09:04;22.90;84.90
27633;DHT22;15046;50.930;13.334;2023-07-20T12:11:37;22.70;85.30
27633;DHT22;15046;50.930;13.334;2023-07-20T12:14:06;22.50;85.70
27633;DHT22;15046;50.930;13.334;2023-07-20T12:16:33;22.20;86.50
27633;DHT22;15046;50.930;13.334;2023-07-20T12:19:07;22.10;87.10
27633;DHT22;15046;50.930;13.334;2023-07-20T12:21:35;22.00;88.60
27633;DHT22;15046;50.930;13.334;2023-07-20T12:24:03;21.80;89.50
27633;DHT22;15046;50.930;13.334;2023-07-20T12:26:30;20.70;91.00
27633;DHT22;15046;50.930;13.334;2023-07-20T12:28:56;19.60;93.50
27633;DHT22;15046;50.930;13.334;2023-07-20T12:31:22;18.70;95.60
27633;DHT22;15046;50.930;13.334;2023-07-20T12:33:49;18.10;98.80
27633;DHT22;15046;50.930;13.334;2023-07-20T12:36:15;17.80;99.90
27633;DHT22;15046;50.930;13.334;2023-07-20T12:38:41;17.60;99.90
27633;DHT22;15046;50.930;13.334;2023-07-20T12:41:09;17.50;99.90
27633;DHT22;15046;50.930;13.334;2023-07-20T12:43:35;17.50;99.90
27633;DHT22;15046;50.930;13.334;2023-07-20T12:46:01;17.70;99.90
27633;DHT22;15046;50.930;13.334;2023-07-20T12:48:27;18.00;99.90
27633;DHT22;15046;50.930;13.334;2023-07-20T12:50:53;18.10;99.90
27633;DHT22;15046;50.930;13.334;2023-07-20T12:53:18;18.20;99.90
27633;DHT22;15046;50.930;13.334;2023-07-20T12:55:44;18.30;99.90
27633;DHT22;15046;50.930;13.334;2023-07-20T12:58:11;18.30;99.90
27633;DHT22;15046;50.930;13.334;2023-07-20T13:00:37;18.20;99.90
27633;DHT22;15046;50.930;13.334;2023-07-20T13:03:02;18.10;99.90
27633;DHT22;15046;50.930;13.334;2023-07-20T13:05:32;18.00;99.90
27633;DHT22;15046;50.930;13.334;2023-07-20T13:07:59;17.90;99.90
27633;DHT22;15046;50.930;13.334;2023-07-20T13:10:24;17.90;99.90
27633;DHT22;15046;50.930;13.334;2023-07-20T13:12:50;17.90;99.90
27633;DHT22;15046;50.930;13.334;2023-07-20T13:15:17;17.80;99.90
27633;DHT22;15046;50.930;13.334;2023-07-20T13:17:42;17.80;99.90
27633;DHT22;15046;50.930;13.334;2023-07-20T13:20:10;17.60;99.90
27633;DHT22;15046;50.930;13.334;2023-07-20T13:22:40;17.70;99.90
27633;DHT22;15046;50.930;13.334;2023-07-20T13:25:07;17.80;99.90
27633;DHT22;15046;50.930;13.334;2023-07-20T13:27:33;18.00;99.90
27633;DHT22;15046;50.930;13.334;2023-07-20T13:30:00;18.10;99.90
27633;DHT22;15046;50.930;13.334;2023-07-20T13:32:26;18.20;99.90
27633;DHT22;15046;50.930;13.334;2023-07-20T13:34:53;18.40;99.90
27633;DHT22;15046;50.930;13.334;2023-07-20T13:37:18;18.30;99.90
27633;DHT22;15046;50.930;13.334;2023-07-20T13:39:44;18.40;99.90
27633;DHT22;15046;50.930;13.334;2023-07-20T13:42:11;18.40;99.90
27633;DHT22;15046;50.930;13.334;2023-07-20T13:44:38;18.50;99.90
27633;DHT22;15046;50.930;13.334;2023-07-20T13:47:04;18.90;99.90
27633;DHT22;15046;50.930;13.334;2023-07-20T13:49:32;19.80;99.90
27633;DHT22;15046;50.930;13.334;2023-07-20T13:51:58;20.40;99.90
27633;DHT22;15046;50.930;13.334;2023-07-20T13:54:24;20.60;99.90
27633;DHT22;15046;50.930;13.334;2023-07-20T13:56:51;20.90;99.90
27633;DHT22;15046;50.930;13.334;2023-07-20T13:59:20;21.50;99.90
27633;DHT22;15046;50.930;13.334;2023-07-20T14:01:46;22.00;99.90
27633;DHT22;15046;50.930;13.334;2023-07-20T14:04:13;22.60;99.90
27633;DHT22;15046;50.930;13.334;2023-07-20T14:06:38;23.10;99.90
27633;DHT22;15046;50.930;13.334;2023-07-20T14:09:04;23.20;99.90
27633;DHT22;15046;50.930;13.334;2023-07-20T14:11:30;23.50;99.90
27633;DHT22;15046;50.930;13.334;2023-07-20T14:13:56;23.80;99.90
27633;DHT22;15046;50.930;13.334;2023-07-20T14:16:24;24.00;99.90
27633;DHT22;15046;50.930;13.334;2023-07-20T14:18:50;23.40;99.90
27633;DHT22;15046;50.930;13.334;2023-07-20T14:21:17;22.70;99.90
27633;DHT22;15046;50.930;13.334;2023-07-20T14:23:45;22.10;99.90
27633;DHT22;15046;50.930;13.334;2023-07-20T14:26:12;21.80;99.90
27633;DHT22;15046;50.930;13.334;2023-07-20T14:28:38;21.50;99.90
27633;DHT22;15046;50.930;13.334;2023-07-20T14:31:04;21.40;99.90
27633;DHT22;15046;50.930;13.334;2023-07-20T14:33:30;21.60;99.90
27633;DHT22;15046;50.930;13.334;2023-07-20T14:35:56;21.90;99.90
27633;DHT22;15046;50.930;13.334;2023-07-20T14:38:22;22.30;99.90
27633;DHT22;15046;50.930;13.334;2023-07-20T14:40:48;23.10;99.90
27633;DHT22;15046;50.930;13.334;2023-07-20T14:43:13;23.80;99.90
27633;DHT22;15046;50.930;13.334;2023-07-20T14:45:41;23.80;99.90
27633;DHT22;15046;50.930;13.334;2023-07-20T14:48:07;23.60;99.90
27633;DHT22;15046;50.930;13.334;2023-07-20T14:50:33;23.30;99.90
27633;DHT22;15046;50.930;13.334;2023-07-20T14:52:59;23.10;99.90
27633;DHT22;15046;50.930;13.334;2023-07-20T14:55:25;23.30;99.50
27633;DHT22;15046;50.930;13.334;2023-07-20T14:57:51;23.70;99.30
27633;DHT22;15046;50.930;13.334;2023-07-20T15:00:17;23.60;98.20
27633;DHT22;15046;50.930;13.334;2023-07-20T15:02:43;23.40;97.20
27633;DHT22;15046;50.930;13.334;2023-07-20T15:05:12;23.20;97.00
27633;DHT22;15046;50.930;13.334;2023-07-20T15:07:37;23.10;97.30
27633;DHT22;15046;50.930;13.334;2023-07-20T15:10:04;23.00;97.30
27633;DHT22;15046;50.930;13.334;2023-07-20T15:12:30;23.10;97.60
27633;DHT22;15046;50.930;13.334;2023-07-20T15:17:31;23.90;97.50
27633;DHT22;15046;50.930;13.334;2023-07-20T15:19:56;24.50;95.70
27633;DHT22;15046;50.930;13.334;2023-07-20T15:22:22;24.40;94.00
27633;DHT22;15046;50.930;13.334;2023-07-20T15:24:48;23.90;94.00
27633;DHT22;15046;50.930;13.334;2023-07-20T15:27:14;23.50;93.90
27633;DHT22;15046;50.930;13.334;2023-07-20T15:29:39;23.40;93.20
27633;DHT22;15046;50.930;13.334;2023-07-20T15:32:06;23.00;93.20